createdAt,value
2017-12-05T00:00:57.327Z,96.90
2017-12-05T00:03:25.596Z,97.00
2017-12-05T00:05:53.056Z,97.10
2017-12-05T00:08:20.661Z,96.90
2017-12-05T00:10:48.141Z,97.00
2017-12-05T00:13:15.718Z,97.20
2017-12-05T00:15:43.243Z,97.00
2017-12-05T00:18:10.724Z,96.90
2017-12-05T00:20:38.200Z,96.80
2017-12-05T00:25:40.389Z,96.90
2017-12-05T00:28:08.643Z,96.60
2017-12-05T00:30:36.108Z,96.80
2017-12-05T00:33:03.593Z,96.90
2017-12-05T00:35:31.850Z,97.20
2017-12-05T00:37:59.313Z,97.20
2017-12-05T00:40:26.781Z,97.20
2017-12-05T00:42:55.036Z,97.10
2017-12-05T00:45:22.514Z,97.10
2017-12-05T00:47:50.737Z,97.30
2017-12-05T00:50:18.633Z,97.30
2017-12-05T00:52:47.501Z,97.30
2017-12-05T00:55:14.965Z,97.30
2017-12-05T00:57:42.501Z,97.20
2017-12-05T01:00:10.137Z,97.10
2017-12-05T01:02:38.352Z,97.00
2017-12-05T01:05:05.817Z,97.10
2017-12-05T01:07:33.300Z,97.00
2017-12-05T01:10:01.531Z,97.00
2017-12-05T01:12:28.998Z,97.00
2017-12-05T01:14:56.483Z,96.90
2017-12-05T01:17:23.984Z,96.80
2017-12-05T01:19:51.454Z,96.60
2017-12-05T01:22:18.923Z,96.60
2017-12-05T01:24:46.393Z,96.60
2017-12-05T01:27:13.856Z,96.60
2017-12-05T01:29:41.336Z,96.60
2017-12-05T01:32:09.560Z,96.40
2017-12-05T01:34:37.030Z,96.40
2017-12-05T01:37:04.488Z,96.50
2017-12-05T01:39:31.989Z,96.20
2017-12-05T01:42:00.217Z,96.40
2017-12-05T01:44:27.692Z,96.30
2017-12-05T01:46:55.170Z,96.30
2017-12-05T01:49:23.457Z,96.40
2017-12-05T01:51:50.930Z,96.30
2017-12-05T01:54:18.396Z,96.40
2017-12-05T01:56:45.859Z,96.10
2017-12-05T01:59:13.442Z,96.00
2017-12-05T02:01:40.904Z,96.00
2017-12-05T02:04:08.368Z,96.00
2017-12-05T02:06:35.953Z,95.80
2017-12-05T02:09:04.195Z,95.80
2017-12-05T02:11:31.713Z,95.80
2017-12-05T02:13:59.884Z,95.70
2017-12-05T02:16:27.341Z,95.50
2017-12-05T02:18:55.202Z,95.60
2017-12-05T02:21:22.659Z,95.30
2017-12-05T02:23:50.190Z,95.50
2017-12-05T02:26:17.678Z,95.70
2017-12-05T02:28:45.141Z,95.30
2017-12-05T02:31:12.618Z,95.40
2017-12-05T02:33:40.092Z,95.30
2017-12-05T02:36:07.561Z,95.30
2017-12-05T02:38:35.042Z,95.10
2017-12-05T02:41:09.537Z,95.30
2017-12-05T02:43:37.005Z,95.20
2017-12-05T02:46:05.249Z,95.50
2017-12-05T02:48:32.757Z,95.20
2017-12-05T02:51:00.268Z,95.20
2017-12-05T02:53:27.844Z,95.20
2017-12-05T02:55:55.414Z,95.30
2017-12-05T02:58:23.657Z,95.30
2017-12-05T03:00:51.139Z,95.30
2017-12-05T03:03:18.597Z,95.40
2017-12-05T03:05:46.845Z,95.20
2017-12-05T03:08:14.325Z,95.40
2017-12-05T03:10:41.795Z,95.30
2017-12-05T03:13:10.035Z,95.30
2017-12-05T03:15:37.495Z,95.30
2017-12-05T03:18:05.002Z,95.30
2017-12-05T03:20:32.452Z,95.40
2017-12-05T03:23:00.061Z,95.50
2017-12-05T03:25:27.524Z,95.40
2017-12-05T03:27:54.982Z,95.40
2017-12-05T03:30:22.456Z,95.50
2017-12-05T03:32:49.922Z,95.50
2017-12-05T03:35:21.024Z,95.50
2017-12-05T03:37:49.401Z,95.50
2017-12-05T03:40:17.091Z,95.50
2017-12-05T03:42:44.578Z,95.40
2017-12-05T03:45:12.815Z,95.30
2017-12-05T03:47:40.295Z,95.30
2017-12-05T03:50:07.744Z,95.40
2017-12-05T03:52:35.225Z,95.30
2017-12-05T03:55:02.790Z,95.40
2017-12-05T03:57:30.267Z,95.30
2017-12-05T03:59:57.738Z,95.40
2017-12-05T04:02:25.209Z,95.50
2017-12-05T04:04:52.693Z,95.30
2017-12-05T04:07:20.164Z,95.20
2017-12-05T04:09:48.403Z,95.30
2017-12-05T04:12:15.860Z,95.30
2017-12-05T04:14:43.340Z,95.20
2017-12-05T04:17:11.612Z,95.20
2017-12-05T04:19:39.255Z,95.20
2017-12-05T04:22:06.718Z,95.30
2017-12-05T04:24:34.182Z,95.30
2017-12-05T04:27:01.642Z,95.20
2017-12-05T04:29:29.140Z,95.30
2017-12-05T04:31:56.612Z,95.20
2017-12-05T04:34:24.100Z,95.70
2017-12-05T04:36:51.574Z,95.80
2017-12-05T04:39:19.817Z,96.20
2017-12-05T04:41:47.297Z,96.20
2017-12-05T04:44:14.782Z,96.30
2017-12-05T04:46:43.021Z,96.30
2017-12-05T04:49:10.518Z,96.30
2017-12-05T04:51:38.812Z,96.20
2017-12-05T04:54:06.269Z,96.20
2017-12-05T04:56:33.749Z,96.20
2017-12-05T04:59:01.221Z,96.10
2017-12-05T05:01:28.769Z,96.20
2017-12-05T05:03:56.245Z,96.10
2017-12-05T05:06:23.727Z,95.90
2017-12-05T05:08:51.973Z,95.80
2017-12-05T05:11:19.440Z,95.80
2017-12-05T05:13:47.708Z,95.70
2017-12-05T05:16:15.244Z,95.70
2017-12-05T05:18:42.719Z,95.70
2017-12-05T05:21:10.199Z,95.90
2017-12-05T05:23:38.537Z,96.10
2017-12-05T05:26:06.009Z,96.10
2017-12-05T05:28:33.581Z,96.30
2017-12-05T05:31:01.065Z,96.40
2017-12-05T05:33:29.288Z,96.50
2017-12-05T05:35:56.778Z,96.40
2017-12-05T05:38:24.248Z,96.40
2017-12-05T05:40:52.499Z,96.50
2017-12-05T05:43:20.652Z,96.50
2017-12-05T05:45:48.123Z,96.40
2017-12-05T05:48:15.618Z,96.50
2017-12-05T05:50:43.078Z,96.40
2017-12-05T05:53:10.552Z,96.50
2017-12-05T05:55:38.852Z,96.50
2017-12-05T05:58:06.337Z,96.40
2017-12-05T06:00:33.816Z,96.60
2017-12-05T06:03:02.094Z,96.40
2017-12-05T06:05:30.349Z,96.50
2017-12-05T06:07:58.590Z,96.40
2017-12-05T06:10:26.073Z,96.40
2017-12-05T06:12:53.525Z,96.40
2017-12-05T06:15:21.043Z,96.50
2017-12-05T06:17:48.581Z,96.70
2017-12-05T06:20:16.066Z,96.80
2017-12-05T06:22:43.526Z,97.20
2017-12-05T06:25:11.013Z,97.40
2017-12-05T06:27:38.480Z,97.50
2017-12-05T06:30:05.944Z,97.70
2017-12-05T06:32:33.415Z,97.80
2017-12-05T06:35:01.661Z,97.90
2017-12-05T06:37:29.142Z,97.90
2017-12-05T06:39:57.379Z,98.10
2017-12-05T06:42:24.849Z,98.00
2017-12-05T06:44:52.313Z,98.00
2017-12-05T06:47:19.781Z,98.00
2017-12-05T06:49:48.129Z,97.90
2017-12-05T06:52:15.610Z,97.90
2017-12-05T06:54:43.114Z,97.80
2017-12-05T06:57:10.588Z,97.70
2017-12-05T06:59:38.050Z,97.70
2017-12-05T07:02:05.539Z,97.50
2017-12-05T07:04:33.786Z,97.20
2017-12-05T07:07:01.261Z,97.20
2017-12-05T07:09:28.733Z,97.20
2017-12-05T07:11:56.980Z,96.90
2017-12-05T07:14:24.451Z,96.90
2017-12-05T07:16:51.925Z,96.70
2017-12-05T07:19:20.166Z,96.80
2017-12-05T07:21:47.725Z,96.80
2017-12-05T07:24:15.212Z,96.70
2017-12-05T07:26:43.472Z,96.80
2017-12-05T07:29:10.925Z,96.80
2017-12-05T07:31:38.403Z,96.90
2017-12-05T07:34:06.645Z,96.80
2017-12-05T07:36:34.213Z,96.70
2017-12-05T07:39:01.688Z,96.80
2017-12-05T07:41:29.939Z,96.80
2017-12-05T07:43:57.413Z,96.80
2017-12-05T07:46:24.885Z,96.80
2017-12-05T07:48:53.117Z,96.90
2017-12-05T07:51:20.627Z,96.90
2017-12-05T07:53:48.112Z,96.90
2017-12-05T07:56:15.578Z,96.90
2017-12-05T07:58:43.053Z,96.70
2017-12-05T08:01:10.516Z,96.60
2017-12-05T08:03:38.269Z,96.80
2017-12-05T08:06:05.807Z,96.80
2017-12-05T08:08:33.317Z,97.20
2017-12-05T08:11:01.589Z,97.00
2017-12-05T08:13:29.050Z,97.00
2017-12-05T08:15:57.297Z,97.00
2017-12-05T08:18:24.744Z,97.00
2017-12-05T08:20:52.230Z,97.00
2017-12-05T08:23:19.696Z,97.10
2017-12-05T08:25:47.947Z,97.10
2017-12-05T08:28:15.414Z,97.00
2017-12-05T08:30:44.605Z,97.30
2017-12-05T08:33:12.077Z,97.30
2017-12-05T08:35:40.315Z,97.40
2017-12-05T08:38:07.779Z,97.20
2017-12-05T08:40:35.238Z,97.20
2017-12-05T08:43:02.746Z,97.20
2017-12-05T08:45:30.366Z,97.20
2017-12-05T08:47:57.988Z,97.10
2017-12-05T08:50:26.430Z,97.10
2017-12-05T08:52:54.766Z,97.10
2017-12-05T08:55:22.239Z,97.10
2017-12-05T08:57:50.480Z,97.10
2017-12-05T09:00:17.950Z,97.10
2017-12-05T09:02:45.408Z,96.90
2017-12-05T09:05:12.880Z,97.10
2017-12-05T09:07:40.341Z,96.90
2017-12-05T09:10:07.934Z,96.90
2017-12-05T09:12:36.165Z,96.70
2017-12-05T09:15:03.651Z,96.70
2017-12-05T09:17:31.120Z,96.90
2017-12-05T09:19:59.353Z,96.80
2017-12-05T09:22:26.828Z,96.80
2017-12-05T09:24:54.308Z,96.70
2017-12-05T09:27:22.547Z,96.70
2017-12-05T09:29:50.017Z,96.70
2017-12-05T09:32:17.494Z,96.70
2017-12-05T09:34:45.733Z,96.70
2017-12-05T09:37:13.290Z,96.70
2017-12-05T09:39:40.822Z,96.70
2017-12-05T09:42:08.365Z,96.60
2017-12-05T09:44:35.966Z,96.70
2017-12-05T09:47:03.449Z,96.40
2017-12-05T09:49:30.929Z,96.50
2017-12-05T09:51:59.179Z,96.20
2017-12-05T09:54:26.697Z,96.30
2017-12-05T09:56:54.181Z,96.30
2017-12-05T09:59:21.646Z,96.40
2017-12-05T10:01:49.920Z,96.50
2017-12-05T10:04:17.417Z,96.50
2017-12-05T10:06:45.016Z,96.30
2017-12-05T10:09:13.349Z,96.40
2017-12-05T10:11:40.823Z,96.40
2017-12-05T10:14:08.285Z,96.10
2017-12-05T10:16:35.760Z,96.20
2017-12-05T10:19:03.249Z,96.10
2017-12-05T10:21:30.704Z,96.10
2017-12-05T10:23:58.180Z,96.20
2017-12-05T10:26:26.413Z,96.10
2017-12-05T10:28:53.896Z,96.10
2017-12-05T10:31:21.361Z,96.10
2017-12-05T10:33:49.623Z,96.00
2017-12-05T10:36:17.112Z,96.00
2017-12-05T10:38:45.310Z,95.90
2017-12-05T10:41:12.797Z,95.90
2017-12-05T10:43:40.272Z,95.90
2017-12-05T10:46:07.764Z,95.90
2017-12-05T10:48:35.239Z,95.70
2017-12-05T10:51:02.800Z,95.60
2017-12-05T10:53:30.460Z,95.60
2017-12-05T10:55:57.961Z,95.70
2017-12-05T10:58:25.441Z,95.50
2017-12-05T11:00:53.757Z,95.50
2017-12-05T11:03:21.250Z,95.50
2017-12-05T11:05:48.715Z,95.70
2017-12-05T11:08:16.188Z,95.60
2017-12-05T11:10:44.441Z,95.50
2017-12-05T11:13:11.899Z,95.50
2017-12-05T11:15:39.363Z,95.40
2017-12-05T11:18:07.595Z,95.40
2017-12-05T11:20:35.074Z,95.40
2017-12-05T11:23:02.551Z,95.60
2017-12-05T11:25:30.026Z,95.60
2017-12-05T11:27:58.269Z,95.40
2017-12-05T11:30:25.736Z,95.40
2017-12-05T11:32:53.213Z,95.60
2017-12-05T11:35:21.469Z,95.40
2017-12-05T11:37:48.993Z,95.40
2017-12-05T11:40:16.480Z,95.30
2017-12-05T11:42:43.949Z,95.30
2017-12-05T11:45:12.195Z,95.10
2017-12-05T11:47:39.664Z,95.10
2017-12-05T11:50:07.214Z,95.20
2017-12-05T11:52:34.823Z,95.20
2017-12-05T11:55:02.280Z,95.20
2017-12-05T11:57:29.808Z,95.10
2017-12-05T11:59:57.292Z,95.20
2017-12-05T12:02:25.524Z,95.20
2017-12-05T12:04:52.993Z,95.20
2017-12-05T12:07:20.474Z,95.30
2017-12-05T12:09:48.701Z,95.30
2017-12-05T12:12:16.173Z,95.20
2017-12-05T12:14:43.633Z,95.30
2017-12-05T12:17:11.121Z,95.20
2017-12-05T12:19:38.585Z,95.30
2017-12-05T12:22:06.068Z,95.10
2017-12-05T12:24:33.605Z,95.20
2017-12-05T12:27:01.073Z,95.10
2017-12-05T12:29:28.616Z,95.30
2017-12-05T12:31:56.076Z,95.30
2017-12-05T12:34:23.804Z,95.20
2017-12-05T12:36:51.354Z,95.10
2017-12-05T12:39:18.836Z,95.10
2017-12-05T12:41:46.317Z,94.90
2017-12-05T12:44:14.018Z,95.10
2017-12-05T12:46:41.537Z,95.20
2017-12-05T12:49:09.044Z,95.00
2017-12-05T12:51:36.510Z,95.00
2017-12-05T12:54:03.995Z,95.00
2017-12-05T12:56:31.481Z,95.00
2017-12-05T12:58:58.948Z,94.90
2017-12-05T13:01:26.431Z,94.90
2017-12-05T13:03:53.901Z,95.10
2017-12-05T13:06:21.355Z,94.90
2017-12-05T13:08:48.870Z,95.00
2017-12-05T13:11:16.341Z,94.90
2017-12-05T13:13:43.825Z,95.10
2017-12-05T13:16:11.290Z,94.90
2017-12-05T13:18:39.542Z,94.90
2017-12-05T13:21:07.017Z,94.90
2017-12-05T13:23:35.293Z,94.80
2017-12-05T13:26:03.009Z,94.80
2017-12-05T13:28:30.520Z,94.80
2017-12-05T13:30:58.763Z,94.60
2017-12-05T13:33:26.226Z,94.60
2017-12-05T13:35:53.693Z,94.70
2017-12-05T13:38:21.164Z,94.70
2017-12-05T13:40:49.407Z,94.70
2017-12-05T13:43:17.068Z,94.70
2017-12-05T13:45:44.585Z,94.60
2017-12-05T13:48:12.161Z,94.70
2017-12-05T13:50:39.649Z,94.70
2017-12-05T13:53:07.125Z,94.70
2017-12-05T13:55:34.606Z,94.60
2017-12-05T13:58:02.843Z,94.70
2017-12-05T14:00:30.365Z,94.70
2017-12-05T14:02:57.934Z,94.40
2017-12-05T14:05:25.418Z,94.40
2017-12-05T14:07:52.902Z,94.50
2017-12-05T14:10:21.157Z,94.30
2017-12-05T14:12:48.621Z,94.30
2017-12-05T14:15:16.089Z,94.50
2017-12-05T14:17:44.572Z,94.00
2017-12-05T14:20:13.482Z,94.00
2017-12-05T14:22:41.866Z,94.00
2017-12-05T14:25:09.367Z,94.10
2017-12-05T14:27:36.836Z,94.20
2017-12-05T14:30:04.357Z,94.30
2017-12-05T14:32:31.817Z,94.10
2017-12-05T14:34:59.291Z,94.00
2017-12-05T14:37:26.783Z,94.10
2017-12-05T14:39:54.278Z,93.90
2017-12-05T14:42:21.750Z,94.10
2017-12-05T14:44:49.232Z,94.00
2017-12-05T14:47:16.697Z,94.00
2017-12-05T14:49:44.168Z,94.10
2017-12-05T14:52:12.433Z,93.90
2017-12-05T14:54:40.690Z,94.20
2017-12-05T14:57:08.165Z,93.90
2017-12-05T14:59:36.413Z,94.20
2017-12-05T15:02:03.895Z,94.00
2017-12-05T15:04:31.413Z,93.90
2017-12-05T15:06:59.093Z,93.90
2017-12-05T15:09:26.625Z,93.80
2017-12-05T15:11:54.326Z,93.70
2017-12-05T15:14:21.805Z,93.80
2017-12-05T15:16:51.509Z,93.80
2017-12-05T15:19:19.749Z,93.90
2017-12-05T15:21:47.261Z,93.90
2017-12-05T15:24:14.741Z,93.90
2017-12-05T15:26:42.202Z,93.90
2017-12-05T15:29:09.677Z,93.90
2017-12-05T15:31:37.137Z,93.80
2017-12-05T15:34:04.617Z,94.00
2017-12-05T15:36:32.079Z,93.80
2017-12-05T15:38:59.579Z,94.00
2017-12-05T15:41:27.073Z,94.00
2017-12-05T15:43:54.554Z,94.00
2017-12-05T15:46:22.808Z,94.00
2017-12-05T15:48:50.265Z,94.00
2017-12-05T15:51:17.742Z,94.00
2017-12-05T15:53:46.005Z,94.00
2017-12-05T15:56:13.721Z,94.30
2017-12-05T15:58:41.233Z,94.00
2017-12-05T16:01:08.723Z,94.00
2017-12-05T16:03:36.190Z,94.10
2017-12-05T16:06:04.240Z,94.10
2017-12-05T16:08:32.618Z,94.10
2017-12-05T16:11:00.870Z,93.90
2017-12-05T16:13:28.344Z,93.90
2017-12-05T16:15:56.598Z,93.70
2017-12-05T16:18:24.069Z,93.70
2017-12-05T16:20:52.423Z,93.70
2017-12-05T16:23:19.894Z,93.70
2017-12-05T16:25:47.640Z,93.70
2017-12-05T16:28:15.110Z,93.70
2017-12-05T16:30:42.677Z,93.70
2017-12-05T16:33:10.137Z,93.70
2017-12-05T16:35:38.402Z,93.70
2017-12-05T16:38:05.870Z,93.60
2017-12-05T16:40:34.244Z,93.60
2017-12-05T16:43:01.774Z,93.60
2017-12-05T16:45:29.256Z,93.70
2017-12-05T16:47:56.729Z,93.50
2017-12-05T16:50:25.489Z,93.60
2017-12-05T16:52:53.010Z,93.60
2017-12-05T16:55:20.484Z,93.50
2017-12-05T16:57:47.949Z,93.50
2017-12-05T17:00:15.429Z,93.30
2017-12-05T17:02:42.901Z,93.40
2017-12-05T17:05:11.641Z,93.40
2017-12-05T17:07:39.123Z,93.40
2017-12-05T17:10:06.605Z,93.40
2017-12-05T17:12:34.850Z,93.20
2017-12-05T17:15:02.349Z,93.20
2017-12-05T17:17:29.814Z,93.30
2017-12-05T17:19:57.281Z,93.40
2017-12-05T17:22:25.525Z,93.30
2017-12-05T17:24:53.772Z,93.30
2017-12-05T17:27:21.370Z,93.20
2017-12-05T17:29:48.896Z,93.30
2017-12-05T17:32:16.361Z,93.30
2017-12-05T17:34:44.600Z,93.50
2017-12-05T17:37:12.084Z,93.30
2017-12-05T17:39:39.545Z,93.30
2017-12-05T17:42:07.797Z,93.40
2017-12-05T17:44:35.356Z,93.30
2017-12-05T17:47:02.820Z,93.30
2017-12-05T17:49:30.313Z,93.30
2017-12-05T17:51:57.764Z,93.20
2017-12-05T17:54:26.014Z,93.20
2017-12-05T17:56:53.593Z,93.20
2017-12-05T17:59:21.842Z,93.10
2017-12-05T18:01:49.317Z,93.10
2017-12-05T18:04:16.928Z,93.10
2017-12-05T18:06:44.537Z,93.00
2017-12-05T18:09:12.754Z,92.80
2017-12-05T18:11:40.238Z,92.90
2017-12-05T18:14:07.716Z,92.90
2017-12-05T18:16:35.185Z,92.90
2017-12-05T18:19:02.725Z,92.80
2017-12-05T18:21:30.200Z,92.60
2017-12-05T18:23:58.443Z,92.70
2017-12-05T18:28:59.737Z,92.70
2017-12-05T18:31:27.225Z,92.70
2017-12-05T18:33:54.713Z,92.70
2017-12-05T18:36:22.205Z,92.70
2017-12-05T18:38:50.610Z,92.70
2017-12-05T18:41:18.088Z,92.80
2017-12-05T18:43:45.580Z,92.70
2017-12-05T18:46:13.897Z,92.60
2017-12-05T18:48:42.152Z,92.80
2017-12-05T18:51:09.628Z,92.80
2017-12-05T18:53:37.869Z,92.80
2017-12-05T18:56:05.349Z,92.80
2017-12-05T18:58:33.599Z,92.80
2017-12-05T19:01:01.181Z,92.80
2017-12-05T19:03:29.411Z,92.80
2017-12-05T19:05:56.926Z,92.80
2017-12-05T19:08:24.369Z,92.70
2017-12-05T19:10:51.868Z,92.80
2017-12-05T19:13:19.609Z,92.80
2017-12-05T19:15:47.133Z,92.70
2017-12-05T19:18:14.617Z,92.60
2017-12-05T19:20:42.865Z,92.30
2017-12-05T19:23:10.364Z,92.30
2017-12-05T19:25:37.841Z,92.40
2017-12-05T19:28:05.299Z,92.60
2017-12-05T19:30:32.797Z,92.50
2017-12-05T19:33:00.252Z,92.40
2017-12-05T19:35:27.733Z,92.50
2017-12-05T19:37:55.979Z,92.40
2017-12-05T19:40:23.436Z,92.40
2017-12-05T19:42:50.920Z,92.60
2017-12-05T19:45:19.192Z,92.50
2017-12-05T19:47:46.632Z,92.50
2017-12-05T19:50:14.094Z,92.50
2017-12-05T19:52:41.564Z,92.40
2017-12-05T19:55:09.799Z,92.40
2017-12-05T19:57:37.285Z,92.40
2017-12-05T20:00:04.741Z,92.40
2017-12-05T20:02:32.990Z,92.20
2017-12-05T20:05:00.459Z,92.20
2017-12-05T20:07:27.999Z,92.20
2017-12-05T20:09:55.463Z,92.30
2017-12-05T20:12:22.961Z,92.20
2017-12-05T20:14:51.199Z,92.20
2017-12-05T20:17:18.730Z,92.20
2017-12-05T20:19:46.229Z,92.30
2017-12-05T20:22:13.701Z,92.10
2017-12-05T20:24:41.942Z,92.00
2017-12-05T20:27:09.397Z,92.00
2017-12-05T20:29:36.865Z,92.10
2017-12-05T20:32:04.370Z,92.30
2017-12-05T20:34:31.911Z,92.10
2017-12-05T20:37:01.004Z,92.00
2017-12-05T20:39:29.242Z,92.10
2017-12-05T20:41:56.712Z,92.10
2017-12-05T20:44:24.995Z,92.20
2017-12-05T20:46:52.469Z,92.20
2017-12-05T20:49:20.725Z,92.00
2017-12-05T20:51:48.204Z,92.00
2017-12-05T20:54:16.434Z,92.00
2017-12-05T20:56:43.894Z,92.00
2017-12-05T20:59:11.439Z,92.00
2017-12-05T21:01:38.900Z,92.00
2017-12-05T21:04:06.383Z,91.90
2017-12-05T21:06:33.840Z,91.80
2017-12-05T21:09:01.337Z,91.70
2017-12-05T21:11:28.807Z,91.90
2017-12-05T21:13:56.286Z,91.80
2017-12-05T21:16:23.781Z,91.90
2017-12-05T21:18:52.012Z,92.20
2017-12-05T21:21:19.485Z,92.00
2017-12-05T21:23:46.943Z,91.90
2017-12-05T21:26:14.439Z,91.60
2017-12-05T21:28:42.676Z,91.80
2017-12-05T21:31:10.162Z,91.80
2017-12-05T21:33:37.628Z,91.80
2017-12-05T21:36:05.874Z,91.80
2017-12-05T21:38:33.331Z,91.80
2017-12-05T21:41:00.885Z,91.80
2017-12-05T21:43:28.458Z,91.70
2017-12-05T21:45:55.937Z,91.80
2017-12-05T21:48:24.273Z,91.90
2017-12-05T21:50:52.481Z,91.90
2017-12-05T21:53:20.730Z,91.80
2017-12-05T21:55:48.261Z,91.80
2017-12-05T21:58:15.920Z,91.70
2017-12-05T22:00:43.385Z,91.70
2017-12-05T22:03:10.884Z,91.70
2017-12-05T22:05:38.345Z,91.70
2017-12-05T22:08:07.109Z,91.40
2017-12-05T22:10:34.615Z,91.40
2017-12-05T22:13:03.049Z,91.50
2017-12-05T22:15:30.546Z,91.30
2017-12-05T22:17:58.006Z,91.30
2017-12-05T22:20:25.484Z,91.20
2017-12-05T22:22:52.956Z,91.00
2017-12-05T22:25:20.433Z,90.80
2017-12-05T22:27:47.907Z,90.70
2017-12-05T22:30:16.152Z,90.70
2017-12-05T22:32:43.646Z,90.50
2017-12-05T22:35:11.909Z,90.60
2017-12-05T22:37:39.390Z,90.60
2017-12-05T22:40:07.625Z,90.10
2017-12-05T22:42:35.151Z,90.10
2017-12-05T22:45:02.628Z,90.00
2017-12-05T22:47:30.104Z,89.70
2017-12-05T22:49:57.591Z,89.70
2017-12-05T22:52:25.834Z,89.90
2017-12-05T22:54:55.453Z,89.80
2017-12-05T22:57:22.925Z,89.70
2017-12-05T22:59:51.173Z,89.50
2017-12-05T23:02:18.663Z,89.50
2017-12-05T23:04:46.911Z,89.60
2017-12-05T23:07:14.385Z,90.00
2017-12-05T23:09:42.636Z,89.60
2017-12-05T23:12:10.116Z,89.60
2017-12-05T23:14:38.353Z,90.20
2017-12-05T23:17:05.841Z,89.90
2017-12-05T23:19:33.309Z,89.80
2017-12-05T23:22:01.622Z,90.20
2017-12-05T23:24:29.092Z,90.10
2017-12-05T23:26:56.568Z,90.30
2017-12-05T23:29:24.053Z,90.40
2017-12-05T23:31:52.289Z,90.60
2017-12-05T23:34:19.778Z,90.60
2017-12-05T23:36:48.164Z,91.00
2017-12-05T23:39:15.813Z,91.00
2017-12-05T23:41:43.287Z,91.10
2017-12-05T23:44:11.518Z,91.30
2017-12-05T23:46:39.008Z,91.30
2017-12-05T23:49:06.476Z,91.50
2017-12-05T23:51:34.708Z,91.60
2017-12-05T23:54:02.209Z,91.60
2017-12-05T23:56:31.288Z,91.70
2017-12-05T23:58:58.746Z,91.70
